Tiempo atmosférico en la estación meteorológica de Elgeta, Gipuzkoa (470 m.)



Fecha
DESCASC
Temp. máxima en grados centígrados (hora)
DESCASC
Temp. mínima en grados centígrados (hora)
DESCASC
Temp. media en grados centígrados
DESCASC
Racha de viento máxima en m/sg (hora)
DESCASC
Velocidad máxima media en intervalos de 10 minutos(hora)
DESCASC
Precipitaciones diarias en mm
DESCASC
Precipitaciones de 00:00 a 06:00 en mm
DESCASC
Precipitaciones de 06:00 a 12:00 en mm
DESCASC
Precipitaciones de 12:00 a 18:00 en mm
DESCASC
Precipitaciones de 18:00 a 24:00 en mm
DESCASC
25-02-2021 14.5 (15:40) 8.3 (08:30) 11.4 9.72 (00:10) 4.17 (03:00) 0 0 0 0 0
24-02-2021 17.7 (16:00) 9.7 (07:30) 13.7 15.83 (02:30) 7.22 (01:40) 0 0 0 0 0
23-02-2021 15.7 (15:50) 4.7 (01:30) 10.2 15 (10:00) 6.11 (13:10) 0 0 0 0 0
22-02-2021 8.2 (16:20) 4.6 (01:30) 6.4 8.61 (00:30) 3.61 (00:30) 46 25.2 19.2 1.6 0
21-02-2021 15.1 (12:40) 5.2 (00:00) 10.2 13.33 (14:50) 6.39 (06:20) 5.2 0 0 0 5.2
20-02-2021 18.7 (15:10) 13.5 (00:00) 16.1 15.28 (11:20) 6.39 (11:20) 0 0 0 0 0
19-02-2021 18.7 (16:00) 11.2 (00:00) 15 11.39 (10:30) 3.89 (08:30) 0 0 0 0 0
18-02-2021 17 (12:20) 8 (00:00) 12.5 10 (11:50) 3.33 (08:40) 0 0 0 0 0
17-02-2021 16.6 (13:50) 7.7 (00:00) 12.2 9.72 (13:50) 4.17 (22:20) 0 0 0 0 0
16-02-2021 16.1 (14:30) 7.7 (00:00) 11.9 -- (--) -- (--) 0 0 0 0 0
15-02-2021 15.1 (14:50) 7.9 (00:00) 11.5 11.67 (23:30) 5.56 (23:30) 0 0 0 0 0
14-02-2021 15.8 (14:50) 5.8 (00:00) 10.8 10.56 (11:50) 4.17 (11:50) 0 0 0 0 0
13-02-2021 13.4 (16:30) 4.5 (00:00) 8.9 3.61 (00:20) 2.22 (08:40) 0.2 0 0 0 0.2
12-02-2021 14.5 (00:40) 8.2 (00:00) 11.3 13.61 (12:50) 4.44 (12:50) 0.6 0 0.2 0.4 0
11-02-2021 16.2 (14:10) 4.6 (00:00) 10.4 5.28 (10:10) 2.5 (02:10) 0 0 0 0 0
10-02-2021 9.2 (16:30) 4.5 (00:00) 6.8 4.72 (11:00) 1.67 (01:10) 0.2 0 0 0 0.2
09-02-2021 11.6 (12:20) 5.9 (00:00) 8.8 10.56 (08:20) 3.61 (10:50) 0 0 0 0 0
08-02-2021 12.1 (14:20) 5.5 (00:00) 8.8 8.06 (04:00) 2.5 (02:10) 0 0 0 0 0
07-02-2021 9 (15:20) 3.3 (00:00) 6.1 6.11 (01:50) 2.5 (01:50) 0 0 0 0 0
06-02-2021 9 (11:20) 4.2 (00:00) 6.6 10 (13:30) 3.61 (13:30) 0.2 0 0 0.2 0
05-02-2021 10.6 (15:00) 7.4 (00:00) 9 3.89 (18:00) 1.67 (18:50) 0 0 0 0 0
04-02-2021 13.7 (15:30) 7.6 (00:00) 10.6 6.67 (00:20) 3.33 (00:20) 0.2 0 0 0 0.2
03-02-2021 15.9 (15:20) 10.3 (00:00) 13.1 10.56 (02:20) 3.89 (02:30) 0 0 0 0 0
02-02-2021 16.6 (13:10) 9 (00:00) 12.8 9.72 (18:50) 4.17 (18:40) 0.2 0 0 0.2 0
01-02-2021 13.4 (16:30) 9.6 (00:00) 11.5 13.06 (08:40) 5 (08:40) 0.6 0.4 0 0.2 0
31-01-2021 12.6 (16:20) 7.4 (00:00) 10 12.78 (05:00) 4.72 (05:00) 4.2 0.8 1.4 1.8 0.2
30-01-2021 14.7 (00:30) 6.7 (00:00) 10.7 11.39 (01:00) 3.61 (13:10) 5 1.2 0 3.4 0.4

Gráficas

Temp. máximas Temp. mínimas Temp. medias Precipitaciones Rachas de viento máximas Velocidades máximas media en intervalos de 10 minutos

Datos horarios

Fecha y hora oficial Temperatura (ºC) Velocidad del viento (km/h) Dirección del viento Racha (km/h) Dirección de racha Precipitación (mm) Presión (hPa) Tendencia (hPa) Humedad (%)
2021-02-28 23:00:00 10.5 10 Sudeste 36 Sudeste 0 -- -- 70
2021-02-28 22:00:00 9.9 11 Sudeste 24 Sudeste 0 -- -- 76
2021-02-28 21:00:00 8.3 6 Sudeste 20 Este 0 -- -- 87
2021-02-28 20:00:00 8.2 6 Sudeste 26 Sudeste 0 -- -- 89
2021-02-28 19:00:00 8.4 5 Sudeste 11 Sudeste 0 -- -- 87
2021-02-28 18:00:00 8.5 6 Sudeste 13 Sudeste 0 -- -- 83
2021-02-28 17:00:00 8.6 4 Sudeste 12 Sudeste 0 -- -- 82
2021-02-28 16:00:00 8.3 4 Sudeste 15 Este 0 -- -- 86
2021-02-28 15:00:00 8.2 4 Sudeste 11 Sudeste 0 -- -- 86
2021-02-28 14:00:00 8.5 5 Sudeste 10 Este 0 -- -- 81
2021-02-28 13:00:00 8.5 3 Sudeste 10 Sudeste 0 -- -- 80
2021-02-28 12:00:00 9.1 3 Sudeste 8 Sudeste 0 -- -- 77
2021-02-28 11:00:00 7 3 Sudeste 5 Sudeste 0 -- -- 87
2021-02-28 10:00:00 6.6 0 Calma 5 Nordeste 0 -- -- 91
2021-02-28 09:00:00 5.5 0 Calma 4 Sudeste 0 -- -- 96
2021-02-28 08:00:00 5 0 Calma 5 Sudeste 0 -- -- 97
2021-02-28 07:00:00 4.7 2 Sudeste 6 Sur 0 -- -- 97
2021-02-28 06:00:00 3.9 3 Sur 6 Sur 0 -- -- 97
2021-02-28 05:00:00 4.6 2 Oeste 4 Sudoeste 0 -- -- 93
2021-02-28 04:00:00 5.6 0 Calma 8 Noroeste 0 -- -- 93
2021-02-28 03:00:00 5.7 0 Calma 8 Oeste 0 -- -- 92
2021-02-28 02:00:00 5.7 4 Oeste 10 Oeste 0 -- -- 92
2021-02-28 01:00:00 5.7 5 Noroeste 13 Oeste 0 -- -- 90
2021-02-28 00:00:00 5.6 6 Noroeste 13 Oeste 0 -- -- 91
2021-02-27 23:00:00 5.5 6 Noroeste 12 Noroeste 0 -- -- 90
2021-02-27 22:00:00 5.7 5 Noroeste 12 Noroeste 0 -- -- 88
2021-02-27 21:00:00 5.6 4 Noroeste 9 Noroeste 0 -- -- 87
2021-02-27 20:00:00 5.3 2 Noroeste 9 Nordeste 0 -- -- 86
2021-02-27 19:00:00 5.7 4 Norte 12 Nordeste 0 -- -- 84
2021-02-27 18:00:00 6.6 8 Norte 19 Nordeste 0 -- -- 78
2021-02-27 17:00:00 8.4 9 Norte 19 Norte 0 -- -- 75
2021-02-27 16:00:00 9.1 8 Nordeste 19 Nordeste 0 -- -- 72
2021-02-27 15:00:00 10 7 Nordeste 16 Nordeste 0 -- -- 70
2021-02-27 14:00:00 10 4 Norte 15 Nordeste 0 -- -- 73
2021-02-27 13:00:00 9.3 8 Norte 16 Norte 0 -- -- 79
2021-02-27 12:00:00 8 7 Nordeste 16 Norte 0 -- -- 91
2021-02-27 11:00:00 8.6 4 Norte 13 Norte 0 -- -- 91
2021-02-27 10:00:00 8.3 5 Norte 11 Norte 0 -- -- 93
2021-02-27 09:00:00 8.3 3 Norte 9 Oeste 0 -- -- 94
2021-02-27 08:00:00 8.1 4 Sur 16 Sur 0.2 -- -- 96
2021-02-27 07:00:00 8 0 Calma 5 Norte 0 -- -- 96
2021-02-27 06:00:00 8 2 Oeste 5 Norte 0 -- -- 95
2021-02-27 05:00:00 8.1 3 Noroeste 7 Norte 0 -- -- 95
2021-02-27 04:00:00 8.2 3 Norte 10 Nordeste 0 -- -- 94
2021-02-27 03:00:00 8.4 3 Nordeste 12 Nordeste 0 -- -- 91
2021-02-27 02:00:00 8.3 2 Oeste 13 Norte 0 -- -- 93
2021-02-27 01:00:00 8.5 4 Norte 8 Norte 0 -- -- 93
2021-02-27 00:00:00 8.6 2 Noroeste 4 Norte 0 -- -- 93
2021-02-26 23:00:00 8.6 0 Calma 4 Noroeste 0 -- -- 91
2021-02-26 22:00:00 8.6 0 Calma 9 Nordeste 0 -- -- 90
2021-02-26 21:00:00 8.8 0 Calma 10 Este 0 -- -- 88
2021-02-26 20:00:00 8.8 4 Norte 12 Norte 0 -- -- 88
2021-02-26 19:00:00 9.1 9 Nordeste 17 Nordeste 0 -- -- 88
2021-02-26 18:00:00 9.5 5 Nordeste 13 Nordeste 0 -- -- 87
2021-02-26 17:00:00 10.1 6 Nordeste 12 Nordeste 0 -- -- 87
2021-02-26 16:00:00 10.2 3 Nordeste 12 Norte 0 -- -- 87
2021-02-26 15:00:00 10.6 4 Nordeste 11 Norte 0 -- -- 84
2021-02-26 14:00:00 10.6 3 Norte 12 Norte 0 -- -- 86
2021-02-26 13:00:00 10.3 6 Nordeste 12 Norte 0 -- -- 88
2021-02-26 12:00:00 10.2 3 Norte 8 Norte 0 -- -- 86
2021-02-26 11:00:00 9.5 0 Calma 10 Norte 0 -- -- 91
2021-02-26 10:00:00 9.3 3 Nordeste 7 Nordeste 0 -- -- 92
2021-02-26 09:00:00 8.9 0 Calma 4 Norte 0 -- -- 94
2021-02-26 08:00:00 8.7 2 Noroeste 5 Norte 0 -- -- 95
2021-02-26 07:00:00 8.9 0 Calma 4 Noroeste 0 -- -- 95
2021-02-26 06:00:00 9 0 Calma 8 Este 0 -- -- 94
2021-02-26 05:00:00 8.9 0 Calma 4 Oeste 0 -- -- 94
2021-02-26 04:00:00 8.9 0 Calma 5 Oeste 0 -- -- 95
2021-02-26 03:00:00 8.8 2 Oeste 6 Oeste 0 -- -- 94
2021-02-26 02:00:00 9.1 4 Noroeste 9 Oeste 0 -- -- 94
2021-02-26 01:00:00 9.4 3 Noroeste 7 Oeste 0 -- -- 92
2021-02-26 00:00:00 9.1 0 Calma 5 Noroeste 0 -- -- 90
2021-02-25 23:00:00 9.2 2 Noroeste 5 Oeste 0 -- -- 89
2021-02-25 22:00:00 10 0 Calma 8 Sudeste 0 -- -- 85
2021-02-25 21:00:00 10.1 3 Este 12 Este 0 -- -- 85
2021-02-25 20:00:00 10.1 4 Norte 12 Nordeste 0 -- -- 87
2021-02-25 19:00:00 10.5 4 Norte 16 Nordeste 0 -- -- 87
2021-02-25 18:00:00 11.6 4 Norte 13 Norte 0 -- -- 83
2021-02-25 17:00:00 14 2 Sudeste 9 Este 0 -- -- 61
2021-02-25 16:00:00 14.3 3 Este 12 Este 0 -- -- 58
2021-02-25 15:00:00 14.3 6 Este 12 Este 0 -- -- 57
2021-02-25 14:00:00 14.4 4 Este 17 Este 0 -- -- 57
2021-02-25 13:00:00 13.9 5 Sudeste 15 Este 0 -- -- 60
2021-02-25 12:00:00 12.9 6 Sudeste 18 Sudeste 0 -- -- 61
2021-02-25 11:00:00 11.2 9 Sudeste 22 Sudeste 0 -- -- 66
2021-02-25 10:00:00 9.9 10 Sudeste 20 Sur 0 -- -- 70
2021-02-25 09:00:00 8.8 7 Sudeste 14 Sur 0 -- -- 73
2021-02-25 08:00:00 8.5 4 Sur 17 Sudeste 0 -- -- 76
2021-02-25 07:00:00 9.9 12 Sudeste 26 Sudeste 0 -- -- 70
2021-02-25 06:00:00 10.6 12 Sudeste 23 Sudeste 0 -- -- 67
2021-02-25 05:00:00 11.2 8 Sudeste 26 Este 0 -- -- 66
2021-02-25 04:00:00 11.9 13 Sudeste 29 Sudeste 0 -- -- 65
2021-02-25 03:00:00 12.3 15 Sudeste 34 Sudeste 0 -- -- 69
2021-02-25 02:00:00 12.3 6 Sur 26 Sudeste 0 -- -- 70
2021-02-25 01:00:00 13.1 10 Sudeste 35 Sudeste 0 -- -- 68
2021-02-25 00:00:00 13.6 11 Sudeste 37 Este 0 -- -- 68
2021-02-24 23:00:00 14.2 17 Sudeste 34 Sudeste 0 -- -- 65
2021-02-24 22:00:00 14.2 14 Sudeste 31 Sudeste 0 -- -- 65
2021-02-24 21:00:00 14.3 10 Sudeste 27 Sudeste 0 -- -- 63
2021-02-24 20:00:00 14.4 9 Sudeste 29 Sudeste 0 -- -- 64
2021-02-24 19:00:00 15.2 13 Sudeste 42 Sudeste 0 -- -- 61
2021-02-24 18:00:00 16.1 19 Sudeste 40 Sudeste 0 -- -- 57
2021-02-24 17:00:00 17.4 9 Sudeste 28 Sudeste 0 -- -- 52
2021-02-24 16:00:00 17.7 11 Sudeste 39 Sudeste 0 -- -- 49
2021-02-24 15:00:00 17.4 14 Sudeste 41 Sudeste 0 -- -- 50
2021-02-24 14:00:00 16.7 18 Sudeste 40 Sudeste 0 -- -- 51
2021-02-24 13:00:00 15.6 19 Sudeste 50 Sur 0 -- -- 53
2021-02-24 12:00:00 14.7 14 Sudeste 37 Sudeste 0 -- -- 55
2021-02-24 11:00:00 14.2 8 Este 36 Sudeste 0 -- -- 57
2021-02-24 10:00:00 12.7 10 Sudeste 30 Sudeste 0 -- -- 60
2021-02-24 09:00:00 11.2 8 Este 21 Sudeste 0 -- -- 65
2021-02-24 08:00:00 10.5 6 Sudeste 19 Sudeste 0 -- -- 68
2021-02-24 07:00:00 10.1 6 Noroeste 23 Este 0 -- -- 71
2021-02-24 06:00:00 12 8 Sudeste 39 Este 0 -- -- 62
2021-02-24 05:00:00 11.9 13 Sudeste 39 Sudeste 0 -- -- 64
2021-02-24 04:00:00 12 17 Sudeste 47 Este 0 -- -- 66
2021-02-24 03:00:00 12 19 Sudeste 57 Sudeste 0 -- -- 68
2021-02-24 02:00:00 12.3 24 Sudeste 51 Sudeste 0 -- -- 67
2021-02-24 01:00:00 12.1 20 Sudeste 44 Sudeste 0 -- -- 68
2021-02-24 00:00:00 11.9 17 Sudeste 40 Sudeste 0 -- -- 68
2021-02-23 23:00:00 12 15 Sudeste 43 Sudeste 0 -- -- 66
2021-02-23 22:00:00 12.2 17 Sudeste 40 Sudeste 0 -- -- 64
2021-02-23 21:00:00 12.2 17 Sudeste 42 Sudeste 0 -- -- 64
2021-02-23 20:00:00 12.2 9 Sudeste 34 Sudeste 0 -- -- 60
2021-02-23 19:00:00 12.7 8 Sudeste 26 Sudeste 0 -- -- 59
2021-02-23 18:00:00 13.6 7 Sudeste 30 Sudeste 0 -- -- 52
2021-02-23 17:00:00 15.3 8 Sudeste 32 Sur 0 -- -- 46
2021-02-23 16:00:00 15.6 12 Sudeste 43 Sudeste 0 -- -- 45
2021-02-23 15:00:00 15.5 12 Sudeste 36 Sudeste 0 -- -- 45
2021-02-23 14:00:00 14.7 10 Sudeste 49 Sudeste 0 -- -- 48
2021-02-23 13:00:00 12.7 19 Sudeste 50 Sudeste 0 -- -- 54
2021-02-23 12:00:00 12.4 17 Sudeste 41 Sur 0 -- -- 56
2021-02-23 11:00:00 11.9 16 Sudeste 49 Sudeste 0 -- -- 60
2021-02-23 10:00:00 10.4 21 Sudeste 54 Sudoeste 0 -- -- 63
2021-02-23 09:00:00 8.7 15 Sudeste 33 Sudeste 0 -- -- 72
2021-02-23 08:00:00 8 10 Sudeste 30 Sudeste 0 -- -- 74
2021-02-23 07:00:00 7.9 11 Sudeste 38 Sudeste 0 -- -- 77
2021-02-23 06:00:00 7.6 8 Este 35 Sur 0 -- -- 80
2021-02-23 05:00:00 7.6 10 Sudeste 22 Sudeste 0 -- -- 81
2021-02-23 04:00:00 7.3 10 Sudeste 26 Este 0 -- -- 84
2021-02-23 03:00:00 5.1 3 Sur 12 Este 0 -- -- 95
2021-02-23 02:00:00 5.1 6 Sudeste 13 Sudeste 0 -- -- 96
2021-02-23 01:00:00 5 4 Sur 13 Sudeste 0 -- -- 99
2021-02-23 00:00:00 5.4 5 Sudeste 9 Sur 0 -- -- 98
2021-02-22 23:00:00 5.2 3 Oeste 9 Sudeste 0 -- -- 97
2021-02-22 22:00:00 6.4 6 Sudeste 13 Sudeste 0 -- -- 97
2021-02-22 21:00:00 6.5 5 Sudeste 12 Sudeste 0 -- -- 97
2021-02-22 20:00:00 6.7 2 Oeste 5 Sur 0 -- -- 96
2021-02-22 19:00:00 6.9 2 Oeste 6 Oeste 0 -- -- 96
2021-02-22 18:00:00 7.1 4 Noroeste 13 Oeste 0 -- -- 95
2021-02-22 17:00:00 7.9 3 Norte 9 Norte 0 -- -- 92
2021-02-22 16:00:00 7.8 3 Noroeste 9 Noroeste 0 -- -- 95
2021-02-22 15:00:00 7.6 3 Noroeste 16 Nordeste 0.2 -- -- 95
2021-02-22 14:00:00 7.3 6 Noroeste 13 Noroeste 0.2 -- -- 95
2021-02-22 13:00:00 7.3 2 Norte 9 Oeste 1.2 -- -- 96
2021-02-22 12:00:00 6.5 6 Noroeste 19 Noroeste 1.8 -- -- 96
2021-02-22 11:00:00 6 6 Noroeste 16 Noroeste 2.8 -- -- 98
2021-02-22 10:00:00 5.8 5 Oeste 19 Noroeste 1.8 -- -- 97
2021-02-22 09:00:00 5.4 10 Noroeste 21 Noroeste 2.6 -- -- 98
2021-02-22 08:00:00 5.1 9 Noroeste 31 Noroeste 4.4 -- -- 98
2021-02-22 07:00:00 4.9 11 Noroeste 24 Noroeste 5.8 -- -- 98
2021-02-22 06:00:00 4.8 8 Noroeste 28 Oeste 3.8 -- -- 98
2021-02-22 05:00:00 4.7 6 Noroeste 22 Noroeste 2.8 -- -- 97
2021-02-22 04:00:00 4.8 8 Noroeste 23 Noroeste 5 -- -- 97
2021-02-22 03:00:00 4.8 8 Noroeste 22 Oeste 5.2 -- -- 97
2021-02-22 02:00:00 4.7 9 Noroeste 26 Norte 4.2 -- -- 97
2021-02-22 01:00:00 4.8 9 Noroeste 31 Oeste 4.2 -- -- 97
2021-02-22 00:00:00 5.2 11 Noroeste 29 Noroeste 5.2 -- -- 96
2021-02-21 23:00:00 6.1 9 Noroeste 22 Noroeste 0 -- -- 96
2021-02-21 22:00:00 6.9 10 Noroeste 29 Noroeste 0 -- -- 94
2021-02-21 21:00:00 8.7 10 Oeste 24 Oeste 0 -- -- 89
2021-02-21 20:00:00 12.7 8 Sudeste 28 Sudeste 0 -- -- 65
2021-02-21 19:00:00 12.5 8 Sudeste 22 Sudeste 0 -- -- 66
2021-02-21 18:00:00 12.2 5 Este 23 Sudeste 0 -- -- 67
2021-02-21 17:00:00 12.3 6 Sudeste 21 Este 0 -- -- 65
2021-02-21 16:00:00 12.4 13 Sudeste 42 Sur 0 -- -- 63
2021-02-21 15:00:00 12.8 13 Sudeste 48 Sudeste 0 -- -- 59
2021-02-21 14:00:00 14 19 Sudeste 38 Sudeste 0 -- -- 49
2021-02-21 13:00:00 14.9 18 Sudeste 42 Sudeste 0 -- -- 43
2021-02-21 12:00:00 13.7 16 Sudeste 35 Este 0 -- -- 43
2021-02-21 11:00:00 13.1 17 Sudeste 46 Sudeste 0 -- -- 42
2021-02-21 10:00:00 12.3 15 Sudeste 40 Sudeste 0 -- -- 46
2021-02-21 09:00:00 11.5 17 Sudeste 41 Sudeste 0 -- -- 48
2021-02-21 08:00:00 11.3 19 Sudeste 41 Sudeste 0 -- -- 50
2021-02-21 07:00:00 11.2 22 Sudeste 44 Sudeste 0 -- -- 51
2021-02-21 06:00:00 11 20 Sudeste 38 Sudeste 0 -- -- 52
2021-02-21 05:00:00 11.3 19 Sudeste 42 Sudeste 0 -- -- 50
2021-02-21 04:00:00 12 16 Sudeste 40 Sudeste 0 -- -- 49
2021-02-21 03:00:00 12.1 16 Sudeste 32 Sur 0 -- -- 50
2021-02-21 02:00:00 12.5 16 Sudeste 37 Sudeste 0 -- -- 50
2021-02-21 01:00:00 13 13 Sudeste 33 Sur 0 -- -- 51
2021-02-21 00:00:00 13.5 8 Sudeste 22 Sudeste 0 -- -- 50
2021-02-20 23:00:00 14.4 9 Sudeste 27 Sudeste 0 -- -- 47
2021-02-20 22:00:00 15.7 9 Sudeste 33 Sur 0 -- -- 41
2021-02-20 21:00:00 15.7 9 Sudeste 36 Sudeste 0 -- -- 42
2021-02-20 20:00:00 16.5 12 Sudeste 40 Sudeste 0 -- -- 41
2021-02-20 19:00:00 16.8 12 Sudeste 32 Sudeste 0 -- -- 42
2021-02-20 18:00:00 17.5 11 Sudeste 34 Sudeste 0 -- -- 38
2021-02-20 17:00:00 18.4 13 Sudeste 46 Sur 0 -- -- 35
2021-02-20 16:00:00 18.4 17 Sudeste 42 Sudeste 0 -- -- 32
2021-02-20 15:00:00 18.6 12 Sudeste 48 Sudeste 0 -- -- 34
2021-02-20 14:00:00 17.9 14 Sudeste 51 Sudeste 0 -- -- 34
2021-02-20 13:00:00 17.7 18 Sudeste 47 Sur 0 -- -- 33
2021-02-20 12:00:00 17.3 17 Sudeste 55 Sur 0 -- -- 35
2021-02-20 11:00:00 16.1 23 Sudeste 47 Sudeste 0 -- -- 36
2021-02-20 10:00:00 15.6 18 Sudeste 49 Sudeste 0 -- -- 35
2021-02-20 09:00:00 15.2 19 Sudeste 51 Sudeste 0 -- -- 36
2021-02-20 08:00:00 14.7 18 Sudeste 47 Sudeste 0 -- -- 36
2021-02-20 07:00:00 14.3 9 Este 43 Sudeste 0 -- -- 38
2021-02-20 06:00:00 14.5 20 Sudeste 45 Sudeste 0 -- -- 37
2021-02-20 05:00:00 14.3 21 Sudeste 45 Sudeste 0 -- -- 39
2021-02-20 04:00:00 14.2 16 Sudeste 40 Sur 0 -- -- 40
2021-02-20 03:00:00 14.6 21 Sudeste 50 Sudeste 0 -- -- 39
2021-02-20 02:00:00 14.9 15 Sudeste 44 Sudeste 0 -- -- 40
2021-02-20 01:00:00 14.8 10 Sudeste 37 Sur 0 -- -- 39
2021-02-20 00:00:00 14.7 9 Sudeste 29 Este 0 -- -- 40
2021-02-19 23:00:00 14.9 7 Sudeste 19 Sudoeste 0 -- -- 42
2021-02-19 22:00:00 15.2 5 Sudeste 21 Sudeste 0 -- -- 42
2021-02-19 21:00:00 15.8 6 Sudeste 21 Sudeste 0 -- -- 42
2021-02-19 20:00:00 16.6 5 Sudeste 21 Sudoeste 0 -- -- 41
2021-02-19 19:00:00 16 3 Sur 12 Este 0 -- -- 45
2021-02-19 18:00:00 17.3 4 Oeste 13 Este 0 -- -- 38
2021-02-19 17:00:00 18 4 Este 34 Sudeste 0 -- -- 38
2021-02-19 16:00:00 18.7 7 Este 31 Sudeste 0 -- -- 35
2021-02-19 15:00:00 18 9 Sur 29 Sur 0 -- -- 33
2021-02-19 14:00:00 17.3 10 Oeste 27 Sudoeste 0 -- -- 34
2021-02-19 13:00:00 17.6 8 Nordeste 25 Noroeste 0 -- -- 35
2021-02-19 12:00:00 15.8 7 Este 29 Este 0 -- -- 43
2021-02-19 11:00:00 14.7 7 Noroeste 41 Oeste 0 -- -- 49
2021-02-19 10:00:00 13.5 9 Norte 27 Noroeste 0 -- -- 52
2021-02-19 09:00:00 12.4 10 Norte 34 Oeste 0 -- -- 54
2021-02-19 08:00:00 12.1 9 Norte 24 Nordeste 0 -- -- 54
2021-02-19 07:00:00 12.3 8 Sudeste 32 Nordeste 0 -- -- 57
2021-02-19 06:00:00 12.2 6 Este 33 Noroeste 0 -- -- 62
2021-02-19 05:00:00 12.4 7 Norte 27 Oeste 0 -- -- 62
2021-02-19 04:00:00 12.4 7 Nordeste 28 Sur 0 -- -- 61
2021-02-19 03:00:00 12.4 6 Este 28 Nordeste 0 -- -- 65
2021-02-19 02:00:00 12.3 9 Nordeste 40 Noroeste 0 -- -- 66
2021-02-19 01:00:00 11.4 6 Nordeste 15 Este 0 -- -- 69
2021-02-19 00:00:00 11.6 5 Nordeste 18 Sudoeste 0 -- -- 70
2021-02-18 23:00:00 8.9 4 Sudeste 17 Sudeste 0 -- -- 87
2021-02-18 22:00:00 8.1 6 Sudeste 13 Sudeste 0 -- -- 94
2021-02-18 21:00:00 8.3 0 Calma 6 Sudeste 0 -- -- 93
2021-02-18 20:00:00 8.4 3 Oeste 8 Norte 0 -- -- 93
2021-02-18 19:00:00 8.8 4 Noroeste 15 Oeste 0 -- -- 91
2021-02-18 18:00:00 9.3 8 Oeste 15 Noroeste 0 -- -- 90
2021-02-18 17:00:00 9.8 9 Noroeste 18 Noroeste 0 -- -- 89
2021-02-18 16:00:00 10.9 6 Noroeste 15 Noroeste 0 -- -- 85
2021-02-18 15:00:00 12.6 4 Noroeste 13 Norte 0 -- -- 73
2021-02-18 14:00:00 15.4 7 Norte 29 Nordeste 0 -- -- 52
2021-02-18 13:00:00 16.4 8 Norte 24 Nordeste 0 -- -- 38
2021-02-18 12:00:00 16.1 7 Nordeste 36 Noroeste 0 -- -- 39
2021-02-18 11:00:00 15.4 7 Nordeste 35 Sudeste 0 -- -- 39
2021-02-18 10:00:00 14.2 6 Nordeste 26 Nordeste 0 -- -- 42
2021-02-18 09:00:00 13.4 11 Este 31 Sudeste 0 -- -- 47
2021-02-18 08:00:00 12.8 6 Sudoeste 26 Sudeste 0 -- -- 48
2021-02-18 07:00:00 12.3 5 Nordeste 30 Sudeste 0 -- -- 54
2021-02-18 06:00:00 12.3 8 Sudeste 26 Sudeste 0 -- -- 57
2021-02-18 05:00:00 12.6 11 Sudeste 29 Sudeste 0 -- -- 55
2021-02-18 04:00:00 12.9 9 Sudeste 23 Sudeste 0 -- -- 56
2021-02-18 03:00:00 13.6 5 Este 23 Este 0 -- -- 55
2021-02-18 02:00:00 14 8 Nordeste 24 Este 0 -- -- 53
2021-02-18 01:00:00 14.2 8 Este 27 Sudeste 0 -- -- 55
2021-02-18 00:00:00 13.7 9 Sudeste 26 Sudeste 0 -- -- 59
2021-02-17 23:00:00 13.5 12 Sudeste 33 Este 0 -- -- 62
2021-02-17 22:00:00 13.9 14 Sudeste 32 Sudeste 0 -- -- 62
2021-02-17 21:00:00 13.8 7 Sudeste 20 Este 0 -- -- 64
2021-02-17 20:00:00 14.3 6 Sudeste 21 Sudeste 0 -- -- 61
2021-02-17 19:00:00 14.9 6 Sudeste 30 Sudeste 0 -- -- 60
2021-02-17 18:00:00 15.1 6 Sur 28 Sudeste 0 -- -- 57
2021-02-17 17:00:00 15.3 6 Este 20 Sudeste 0 -- -- 56
2021-02-17 16:00:00 14.8 7 Sudoeste 27 Nordeste 0 -- -- 59
2021-02-17 15:00:00 15 3 Este 21 Sudoeste 0 -- -- 57
2021-02-17 14:00:00 16.1 9 Nordeste 35 Noroeste 0 -- -- 51
2021-02-17 13:00:00 15.1 4 Sudoeste 26 Oeste 0 -- -- 55
2021-02-17 12:00:00 14.6 5 Oeste 21 Norte 0 -- -- 60
2021-02-17 11:00:00 13.6 4 Sur 17 Noroeste 0 -- -- 61
2021-02-17 10:00:00 12.1 8 Norte 25 Noroeste 0 -- -- 67
2021-02-17 09:00:00 10.6 6 Norte 17 Sudoeste 0 -- -- 70
2021-02-17 08:00:00 8.3 4 Sudoeste 10 Oeste 0 -- -- 85
2021-02-17 07:00:00 9.5 3 Sur 14 Sudeste 0 -- -- 80
2021-02-17 06:00:00 9.6 4 Sur 16 Este 0 -- -- 78
2021-02-17 05:00:00 10 5 Nordeste 13 Sudeste 0 -- -- 75
2021-02-17 04:00:00 8.3 3 Sudoeste 9 Sudeste 0 -- -- 84
2021-02-17 03:00:00 9.1 3 Sur 13 Sur 0 -- -- 81
2021-02-17 02:00:00 8.7 4 Sudoeste 12 Sudeste 0 -- -- 87
2021-02-17 01:00:00 8.2 4 Sur 9 Sudeste 0 -- -- 90
2021-02-17 00:00:00 7.9 6 Sudeste 11 Sur 0 -- -- 92
2021-02-16 23:00:00 7.8 3 Sudoeste 9 Sudeste 0 -- -- 89
2021-02-16 22:00:00 7.9 2 Sur 5 Sur 0 -- -- 90
2021-02-16 21:00:00 8.4 2 Sur 5 Sudoeste 0 -- -- 89
2021-02-16 20:00:00 9.7 3 Oeste 4 Oeste 0 -- -- 83
2021-02-16 19:00:00 10.2 3 Sudoeste 4 Sudoeste 0 -- -- 79
2021-02-16 18:00:00 10.8 0 Calma 6 Noroeste 0 -- -- 78
2021-02-16 17:00:00 10.6 4 Oeste 11 Oeste 0 -- -- 77
2021-02-16 16:00:00 11.5 5 Norte 11 Noroeste 0 -- -- 75
2021-02-16 15:00:00 14.4 6 Norte 22 Nordeste 0 -- -- 59
2021-02-16 14:00:00 15.6 9 Nordeste 27 Noroeste 0 -- -- 54
2021-02-16 13:00:00 13.9 13 Norte 39 Noroeste 0 -- -- 55
2021-02-16 12:00:00 13.6 12 Nordeste -- -- -- -- -- 54
2021-02-16 11:00:00 -- -- -- -- -- -- -- -- --
2021-02-16 10:00:00 10.8 12 Sudeste 33 Sudeste 0 -- -- 62
2021-02-16 09:00:00 9.6 10 Sudeste 19 Este 0 -- -- 67
2021-02-16 08:00:00 8.5 8 Sudeste 22 Sudeste 0 -- -- 72
2021-02-16 07:00:00 9.7 9 Sudeste 31 Sudeste 0 -- -- 68
2021-02-16 06:00:00 9.8 7 Sudeste 21 Sudeste 0 -- -- 66
2021-02-16 05:00:00 10 8 Este 35 Sur 0 -- -- 67
2021-02-16 04:00:00 11 23 Sudeste 41 Sudeste 0 -- -- 61
2021-02-16 03:00:00 10.9 13 Sudeste 51 Sudeste 0 -- -- 65
2021-02-16 02:00:00 11.1 20 Sudeste 37 Sudeste 0 -- -- 65
2021-02-16 01:00:00 10.7 14 Sudeste 33 Sudeste 0 -- -- 67
2021-02-16 00:00:00 10.5 16 Sudeste 42 Sudeste 0 -- -- 68
2021-02-15 23:00:00 9.4 9 Sudeste 26 Sur 0 -- -- 75
2021-02-15 22:00:00 10.1 14 Sudeste 33 Sudeste 0 -- -- 69
2021-02-15 21:00:00 9.5 8 Sudeste 20 Sudeste 0 -- -- 74
2021-02-15 20:00:00 9.3 6 Sur 22 Sur 0 -- -- 74
2021-02-15 19:00:00 10.2 9 Sur 25 Sudeste 0 -- -- 69
2021-02-15 18:00:00 11.5 7 Sudeste 19 Sudeste 0 -- -- 64
2021-02-15 17:00:00 13.1 5 Sur 20 Sur 0 -- -- 56
2021-02-15 16:00:00 14.4 11 Sudeste 31 Sudeste 0 -- -- 55
2021-02-15 15:00:00 14.8 11 Sudeste 22 Sudeste 0 -- -- 54
2021-02-15 14:00:00 14.8 9 Sudeste 24 Sudoeste 0 -- -- 53
2021-02-15 13:00:00 13.1 10 Sur 26 Sur 0 -- -- 58
2021-02-15 12:00:00 13.2 8 Sudeste 30 Sur 0 -- -- 57
2021-02-15 11:00:00 10.7 20 Sudeste 40 Sudeste 0 -- -- 67
2021-02-15 10:00:00 9.6 11 Sudeste 30 Sudeste 0 -- -- 70
2021-02-15 09:00:00 8.3 10 Sudeste 29 Sur 0 -- -- 75
2021-02-15 08:00:00 8 11 Sudeste 40 Sudeste 0 -- -- 75
2021-02-15 07:00:00 8.7 10 Sur 30 Sudeste 0 -- -- 72
2021-02-15 06:00:00 8.3 10 Sudeste 27 Sudeste 0 -- -- 75
2021-02-15 05:00:00 8.7 6 Sur 25 Sudeste 0 -- -- 73
2021-02-15 04:00:00 9.1 9 Sudeste 30 Sudeste 0 -- -- 73
2021-02-15 03:00:00 9.1 11 Sudeste 25 Sudeste 0 -- -- 74
2021-02-15 02:00:00 9.4 12 Sudeste 30 Sudeste 0 -- -- 74
2021-02-15 01:00:00 9.6 10 Sudeste 21 Sur 0 -- -- 74
2021-02-15 00:00:00 10.3 6 Sur 22 Sudeste 0 -- -- 70
2021-02-14 23:00:00 10.7 7 Sudeste 29 Sudeste 0 -- -- 71
2021-02-14 22:00:00 10.3 7 Sudeste 30 Sudeste 0 -- -- 73
2021-02-14 21:00:00 11.1 9 Sudeste 30 Sudeste 0 -- -- 70
2021-02-14 20:00:00 11.3 8 Sudeste 27 Sudeste 0 -- -- 70
2021-02-14 19:00:00 11.5 10 Sudeste 24 Este 0 -- -- 70
2021-02-14 18:00:00 12.5 13 Sudeste 32 Sudeste 0 -- -- 66
2021-02-14 17:00:00 13.7 8 Sudeste 25 Sudeste 0 -- -- 61
2021-02-14 16:00:00 15.2 9 Sudeste 27 Sudeste 0 -- -- 54
2021-02-14 15:00:00 15.6 11 Sudeste 32 Sudeste 0 -- -- 52
2021-02-14 14:00:00 14.9 13 Sudeste 34 Sudeste 0 -- -- 56
2021-02-14 13:00:00 13.8 13 Sudeste 29 Sudeste 0 -- -- 60
2021-02-14 12:00:00 13.3 11 Sudeste 38 Sudeste 0 -- -- 64
2021-02-14 11:00:00 12.3 11 Sudoeste 32 Sudoeste 0 -- -- 67
2021-02-14 10:00:00 11.5 12 Sudeste 32 Sur 0 -- -- 72
2021-02-14 09:00:00 9.1 4 Sur 21 Sudeste 0 -- -- 83
2021-02-14 08:00:00 6.2 5 Sudeste 13 Sudeste 0 -- -- 94
2021-02-14 07:00:00 6.3 6 Sur 11 Sudeste 0 -- -- 90
2021-02-14 06:00:00 6 5 Sur 14 Sudeste 0 -- -- 92
2021-02-14 05:00:00 6.1 7 Sudeste 11 Sudeste 0 -- -- 93
2021-02-14 04:00:00 6.4 8 Sur 12 Sudeste 0 -- -- 94
2021-02-14 03:00:00 7.1 7 Sur 11 Sur 0 -- -- 89
2021-02-14 02:00:00 7 6 Sur 11 Sur 0 -- -- 91
2021-02-14 01:00:00 7.2 4 Sur 10 Sudeste 0 -- -- 91
2021-02-14 00:00:00 7.3 4 Sur 9 Sur 0 -- -- 92
2021-02-13 23:00:00 7.4 4 Sur 8 Sur 0 -- -- 91
2021-02-13 22:00:00 7.8 4 Sur 6 Sudoeste 0 -- -- 89
2021-02-13 21:00:00 7.8 3 Sur 5 Sur 0.2 -- -- 89
2021-02-13 20:00:00 8.8 3 Sur 7 Sudoeste 0 -- -- 85
2021-02-13 19:00:00 8.8 4 Sudoeste 6 Sudoeste 0 -- -- 90
2021-02-13 18:00:00 9.7 4 Oeste 7 Nordeste 0 -- -- 86
2021-02-13 17:00:00 12.3 3 Norte 8 Nordeste 0 -- -- 73
2021-02-13 16:00:00 11.9 0 Calma 8 Sudeste 0 -- -- 79
2021-02-13 15:00:00 11.4 2 Este 6 Sudeste 0 -- -- 82
2021-02-13 14:00:00 10.7 0 Calma 12 Oeste 0 -- -- 81
2021-02-13 13:00:00 10.6 3 Norte 9 Sudeste 0 -- -- 83
2021-02-13 08:00:00 4.5 6 Sur 10 Sudeste 0 -- -- 99
2021-02-13 07:00:00 5.7 4 Sur 8 Sudeste 0 -- -- 99
2021-02-13 06:00:00 5.9 4 Sur 8 Sudeste 0 -- -- 99
2021-02-13 05:00:00 5.9 4 Sur 8 Sudeste 0 -- -- 99
2021-02-13 04:00:00 5.9 3 Sudoeste 5 Sudoeste 0 -- -- 98
2021-02-13 03:00:00 6.4 3 Sudoeste 6 Oeste 0 -- -- 98
2021-02-13 02:00:00 6.9 4 Oeste 9 Oeste 0 -- -- 97
2021-02-13 01:00:00 7.8 4 Oeste 13 Oeste 0 -- -- 96
2021-02-13 00:00:00 8.2 5 Noroeste 21 Noroeste 0 -- -- 94
2021-02-12 23:00:00 8.6 8 Noroeste 27 Noroeste 0 -- -- 97
2021-02-12 22:00:00 8.7 6 Noroeste 23 Noroeste 0 -- -- 96
2021-02-12 21:00:00 8.7 8 Norte 26 Oeste 0 -- -- 97
2021-02-12 20:00:00 8.8 13 Noroeste 36 Oeste 0 -- -- 98
2021-02-12 19:00:00 8.9 14 Noroeste 35 Noroeste 0 -- -- 98
2021-02-12 18:00:00 9.1 12 Noroeste 38 Oeste 0 -- -- 98
2021-02-12 17:00:00 9.5 13 Noroeste 41 Noroeste 0.2 -- -- 98
2021-02-12 16:00:00 9.5 12 Noroeste 29 Noroeste 0 -- -- 98
2021-02-12 15:00:00 9.6 10 Norte 38 Oeste 0 -- -- 99
2021-02-12 14:00:00 9.4 13 Noroeste 35 Norte 0 -- -- 98
2021-02-12 13:00:00 9.4 12 Noroeste 49 Oeste 0.2 -- -- 97
2021-02-12 12:00:00 9.4 13 Noroeste 46 Noroeste 0 -- -- 96
2021-02-12 11:00:00 9.9 14 Noroeste 37 Norte 0 -- -- 96
2021-02-12 10:00:00 10.1 4 Norte 14 Noroeste 0 -- -- 97
2021-02-12 09:00:00 10 2 Noroeste 8 Noroeste 0 -- -- 97
2021-02-12 08:00:00 10.1 5 Noroeste 21 Noroeste 0.2 -- -- 96
2021-02-12 07:00:00 10.8 4 Noroeste 22 Sudeste 0 -- -- 95
2021-02-12 06:00:00 12.5 5 Noroeste 27 Este 0 -- -- 75
2021-02-12 05:00:00 13.8 6 Nordeste 27 Sur 0 -- -- 68
2021-02-12 04:00:00 14.5 9 Sudeste 25 Noroeste 0 -- -- 63
2021-02-12 03:00:00 14.1 5 Sur 23 Sur 0 -- -- 69
2021-02-12 02:00:00 14.4 7 Sudoeste 25 Sudoeste 0 -- -- 65
2021-02-12 01:00:00 14.4 8 Noroeste 30 Noroeste 0 -- -- 68
2021-02-12 00:00:00 13.4 4 Este 14 Oeste 0 -- -- 75
2021-02-11 23:00:00 11.4 4 Sur 10 Oeste 0 -- -- 83
2021-02-11 22:00:00 12.1 4 Sudoeste 11 Norte 0 -- -- 78
2021-02-11 21:00:00 12 3 Noroeste 9 Este 0 -- -- 78
2021-02-11 20:00:00 13 4 Sur 10 Sudeste 0 -- -- 72
2021-02-11 19:00:00 13.5 4 Sudeste 9 Sudeste 0 -- -- 70
2021-02-11 18:00:00 14.6 4 Noroeste 16 Norte 0 -- -- 64
2021-02-11 17:00:00 15.6 5 Sudeste 17 Sudeste 0 -- -- 66
2021-02-11 16:00:00 15.9 5 Sur 18 Sur 0 -- -- 65
2021-02-11 15:00:00 15.9 6 Sudeste 17 Sudeste 0 -- -- 65
2021-02-11 14:00:00 16 4 Oeste 19 Noroeste 0 -- -- 63
2021-02-11 13:00:00 15.2 7 Sudeste 14 Sudeste 0 -- -- 66
2021-02-11 12:00:00 13.7 2 Nordeste 13 Este 0 -- -- 68
2021-02-11 11:00:00 11.3 5 Este 19 Sudeste 0 -- -- 77
2021-02-11 10:00:00 9.5 8 Sudeste 18 Sudeste 0 -- -- 80
2021-02-11 09:00:00 8.3 3 Sudeste 10 Sur 0 -- -- 83
2021-02-11 08:00:00 7.2 3 Sudeste 8 Sur 0 -- -- 83
2021-02-11 07:00:00 6 3 Sudoeste 10 Sudeste 0 -- -- 86
2021-02-11 06:00:00 6.3 4 Sur 14 Sudeste 0 -- -- 83
2021-02-11 05:00:00 6.3 3 Sudoeste 13 Oeste 0 -- -- 83
2021-02-11 04:00:00 5.5 4 Sur 13 Sudeste 0 -- -- 87
2021-02-11 03:00:00 4.6 3 Sudeste 12 Sudeste 0 -- -- 96
2021-02-11 02:00:00 5.3 8 Sudeste 10 Sudeste 0 -- -- 98
2021-02-11 01:00:00 4.9 3 Sudeste 6 Sudeste 0 -- -- 96
2021-02-11 00:00:00 5.1 3 Sur 5 Sudoeste 0 -- -- 95
2021-02-10 23:00:00 5.6 3 Sur 6 Sur 0.2 -- -- 95
2021-02-10 22:00:00 5.8 3 Sudoeste 5 Oeste 0 -- -- 94
2021-02-10 21:00:00 6.2 4 Sudoeste 7 Oeste 0 -- -- 93
2021-02-10 20:00:00 7.1 4 Oeste 10 Noroeste 0 -- -- 88
2021-02-10 19:00:00 7.7 4 Noroeste 12 Noroeste 0 -- -- 88
2021-02-10 18:00:00 8.5 4 Noroeste 9 Noroeste 0 -- -- 82
2021-02-10 17:00:00 8.7 2 Noroeste 10 Noroeste 0 -- -- 83
2021-02-10 16:00:00 7.9 2 Nordeste 8 Noroeste 0 -- -- 92
2021-02-10 15:00:00 7.5 4 Norte 11 Oeste 0 -- -- 91
2021-02-10 14:00:00 7.5 5 Noroeste 13 Noroeste 0 -- -- 89
2021-02-10 13:00:00 7.2 3 Norte 13 Noroeste 0 -- -- 86
2021-02-10 12:00:00 6.8 3 Norte 15 Norte 0 -- -- 91
2021-02-10 11:00:00 7.2 4 Noroeste 17 Oeste 0 -- -- 77
2021-02-10 10:00:00 5.6 4 Noroeste 10 Norte 0 -- -- 90
2021-02-10 09:00:00 5.1 3 Norte 8 Norte 0 -- -- 96
2021-02-10 08:00:00 4.6 3 Noroeste 6 Norte 0 -- -- 96
2021-02-10 07:00:00 5.2 0 Calma 5 Oeste 0 -- -- 95
2021-02-10 06:00:00 5.9 0 Calma 13 Oeste 0 -- -- 91
2021-02-10 05:00:00 6.4 4 Sudoeste 12 Oeste 0 -- -- 78
2021-02-10 04:00:00 5.5 3 Noroeste 11 Nordeste 0 -- -- 80
2021-02-10 03:00:00 5.5 4 Sudoeste 15 Oeste 0 -- -- 77
2021-02-10 02:00:00 6.6 4 Sudeste 17 Sudoeste 0 -- -- 74
2021-02-10 01:00:00 7.3 5 Sudoeste 16 Oeste 0 -- -- 69
2021-02-10 00:00:00 7.4 6 Nordeste 16 Nordeste 0 -- -- 72
2021-02-09 23:00:00 7.9 5 Este 23 Este 0 -- -- 70
2021-02-09 22:00:00 8 6 Oeste 23 Este 0 -- -- 69
2021-02-09 21:00:00 7.7 6 Sudoeste 28 Noroeste 0 -- -- 70
2021-02-09 20:00:00 8 6 Sur 31 Sudoeste 0 -- -- 63
2021-02-09 19:00:00 7.8 4 Nordeste 20 Noroeste 0 -- -- 70
2021-02-09 18:00:00 8.7 9 Norte 23 Noroeste 0 -- -- 66
2021-02-09 17:00:00 8.8 6 Nordeste 15 Este 0 -- -- 69
2021-02-09 16:00:00 8.6 4 Sudeste 24 Sudeste 0 -- -- 80
2021-02-09 15:00:00 9 7 Norte 35 Sudeste 0 -- -- 82
2021-02-09 14:00:00 9.1 9 Nordeste 30 Sudoeste 0 -- -- 83
2021-02-09 13:00:00 10.6 8 Sudeste 26 Sur 0 -- -- 68
2021-02-09 12:00:00 11.4 11 Este 35 Nordeste 0 -- -- 62
2021-02-09 11:00:00 10.5 12 Este 36 Nordeste 0 -- -- 68
2021-02-09 10:00:00 9.4 9 Norte 30 Nordeste 0 -- -- 71
2021-02-09 09:00:00 9 12 Norte 38 Sudeste 0 -- -- 71
2021-02-09 08:00:00 7.4 5 Este 18 Sudeste 0 -- -- 77
2021-02-09 07:00:00 7.7 5 Sudeste 21 Oeste 0 -- -- 74
2021-02-09 06:00:00 8.1 6 Nordeste 22 Norte 0 -- -- 78
2021-02-09 05:00:00 8.4 8 Nordeste 33 Noroeste 0 -- -- 75
2021-02-09 04:00:00 8.1 5 Sur 27 Noroeste 0 -- -- 75
2021-02-09 03:00:00 6.6 5 Sudeste 13 Sudeste 0 -- -- 84
2021-02-09 02:00:00 7.1 3 Sur 12 Sudeste 0 -- -- 84
2021-02-09 01:00:00 6.2 3 Oeste 10 Sur 0 -- -- 92
2021-02-09 00:00:00 6.4 5 Sur 10 Sudeste 0 -- -- 91
2021-02-08 23:00:00 6 3 Sur 5 Sudoeste 0 -- -- 96
2021-02-08 22:00:00 6 2 Oeste 5 Sudoeste 0 -- -- 94
2021-02-08 21:00:00 7.5 3 Noroeste 11 Oeste 0 -- -- 91
2021-02-08 20:00:00 7.8 5 Noroeste 19 Oeste 0 -- -- 89
2021-02-08 19:00:00 7.8 4 Noroeste 15 Noroeste 0 -- -- 87
2021-02-08 18:00:00 8 4 Noroeste 9 Noroeste 0 -- -- 93
2021-02-08 17:00:00 8.2 5 Oeste 12 Norte 0 -- -- 92
2021-02-08 16:00:00 9 6 Noroeste 26 Noroeste 0 -- -- 88
2021-02-08 15:00:00 11.6 4 Oeste 13 Oeste 0 -- -- 65
2021-02-08 14:00:00 11.7 4 Norte 12 Norte 0 -- -- 71
2021-02-08 13:00:00 10.9 4 Norte 11 Norte 0 -- -- 77
2021-02-08 12:00:00 8.2 0 Calma 10 Norte 0 -- -- 95
2021-02-08 11:00:00 7.5 0 Calma 4 Noroeste 0 -- -- 97
2021-02-08 10:00:00 7.3 3 Oeste 4 Oeste 0 -- -- 98
2021-02-08 09:00:00 7.2 2 Sudoeste 9 Sudoeste 0 -- -- 95
2021-02-08 08:00:00 8.2 6 Sudoeste 13 Sudoeste 0 -- -- 84
2021-02-08 07:00:00 7.7 3 Sudeste 19 Noroeste 0 -- -- 86
2021-02-08 06:00:00 7.8 4 Oeste 18 Este 0 -- -- 84
2021-02-08 05:00:00 7.1 4 Noroeste 20 Norte 0 -- -- 89
2021-02-08 04:00:00 7.8 8 Noroeste 29 Sudoeste 0 -- -- 82
2021-02-08 03:00:00 7.1 6 Este 22 Este 0 -- -- 86
2021-02-08 02:00:00 7.4 8 Sudeste 22 Noroeste 0 -- -- 80
2021-02-08 01:00:00 6.9 6 Oeste 18 Sudoeste 0 -- -- 83
2021-02-08 00:00:00 6.6 6 Oeste 17 Sudoeste 0 -- -- 81
2021-02-07 23:00:00 5.8 3 Sudoeste 13 Sudeste 0 -- -- 90
2021-02-07 22:00:00 5.4 3 Sudoeste 11 Norte 0 -- -- 93
2021-02-07 21:00:00 5.5 3 Nordeste 12 Sur 0 -- -- 94
2021-02-07 20:00:00 6 3 Noroeste 14 Noroeste 0 -- -- 83
2021-02-07 19:00:00 6 3 Norte 6 Nordeste 0 -- -- 80
2021-02-07 18:00:00 6.7 2 Sudoeste 10 Noroeste 0 -- -- 79
2021-02-07 17:00:00 7.4 0 Calma 8 Nordeste 0 -- -- 80
2021-02-07 16:00:00 8.7 0 Calma 6 Noroeste 0 -- -- 67
2021-02-07 15:00:00 8.9 3 Nordeste 13 Oeste 0 -- -- 67
2021-02-07 14:00:00 8.3 4 Norte 12 Noroeste 0 -- -- 71
2021-02-07 13:00:00 7.8 3 Sur 9 Oeste 0 -- -- 77
2021-02-07 12:00:00 6 3 Noroeste 10 Noroeste 0 -- -- 80
2021-02-07 11:00:00 5.2 4 Norte 11 Noroeste 0 -- -- 88
2021-02-07 10:00:00 4.4 3 Noroeste 9 Noroeste 0 -- -- 96
2021-02-07 09:00:00 3.5 3 Noroeste 6 Norte 0 -- -- 98
2021-02-07 08:00:00 3.4 3 Noroeste 9 Oeste 0 -- -- 98
2021-02-07 07:00:00 3.5 3 Noroeste 7 Noroeste 0 -- -- 99
2021-02-07 06:00:00 3.5 4 Noroeste 12 Noroeste 0 -- -- 98
2021-02-07 05:00:00 3.5 3 Noroeste 18 Noroeste 0 -- -- 98
2021-02-07 04:00:00 3.5 4 Noroeste 18 Noroeste 0 -- -- 97
2021-02-07 03:00:00 3.5 5 Noroeste 14 Noroeste 0 -- -- 98
2021-02-07 02:00:00 3.3 6 Noroeste 22 Oeste 0 -- -- 96
2021-02-07 01:00:00 4 4 Noroeste 20 Oeste 0 -- -- 96
2021-02-07 00:00:00 4.2 9 Oeste 23 Oeste 0 -- -- 94
2021-02-06 23:00:00 4.4 7 Noroeste 18 Oeste 0 -- -- 96
2021-02-06 22:00:00 4.6 6 Noroeste 21 Oeste 0 -- -- 97
2021-02-06 21:00:00 4.8 8 Noroeste 22 Noroeste 0 -- -- 95
2021-02-06 20:00:00 5.2 5 Noroeste 13 Oeste 0 -- -- 97
2021-02-06 19:00:00 5.3 6 Noroeste 18 Norte 0 -- -- 97
2021-02-06 18:00:00 5.4 7 Noroeste 22 Oeste 0 -- -- 97
2021-02-06 17:00:00 5.5 6 Noroeste 24 Noroeste 0 -- -- 97
2021-02-06 16:00:00 6 8 Noroeste 29 Noroeste 0 -- -- 98
2021-02-06 15:00:00 6.8 5 Norte 26 Norte 0 -- -- 98
2021-02-06 14:00:00 7.1 6 Norte 36 Nordeste 0 -- -- 99
2021-02-06 13:00:00 7.5 9 Noroeste 31 Noroeste 0.2 -- -- 99
2021-02-06 12:00:00 8.8 7 Noroeste 22 Oeste 0 -- -- 99
2021-02-06 11:00:00 8.9 2 Norte 7 Noroeste 0 -- -- 99
2021-02-06 10:00:00 8.7 0 Calma 5 Oeste 0 -- -- 99
2021-02-06 09:00:00 8.5 2 Noroeste 5 Noroeste 0 -- -- 99
2021-02-06 08:00:00 8.5 0 Calma 4 Sudeste 0 -- -- 99
2021-02-06 07:00:00 8.6 0 Calma 2 Oeste 0 -- -- 98
2021-02-06 06:00:00 8.7 2 Sudoeste 10 Este 0 -- -- 98
2021-02-06 05:00:00 8.8 3 Sudeste 12 Sudeste 0 -- -- 99
2021-02-06 04:00:00 8.6 2 Nordeste 4 Noroeste 0 -- -- 99
2021-02-06 03:00:00 8.5 0 Calma 4 Sudeste 0 -- -- 99
2021-02-06 02:00:00 8.5 2 Sudeste 10 Este 0 -- -- 99
2021-02-06 01:00:00 8.4 0 Calma 5 Noroeste 0 -- -- 100
2021-02-06 00:00:00 8.4 0 Calma 13 Nordeste 0 -- -- 100
2021-02-05 23:00:00 8.4 4 Nordeste 13 Este 0 -- -- 99
2021-02-05 22:00:00 8.5 4 Norte 12 Norte 0 -- -- 99
2021-02-05 21:00:00 8.5 3 Norte 10 Nordeste 0 -- -- 99
2021-02-05 20:00:00 8.6 4 Norte 13 Norte 0 -- -- 99
2021-02-05 19:00:00 8.8 6 Nordeste 12 Norte 0 -- -- 99
2021-02-05 18:00:00 9.1 6 Norte 14 Nordeste 0 -- -- 99
2021-02-05 17:00:00 9.4 3 Norte 10 Norte 0 -- -- 98
2021-02-05 16:00:00 10 3 Norte 8 Oeste 0 -- -- 94
2021-02-05 15:00:00 10.6 3 Noroeste 8 Noroeste 0 -- -- 93
2021-02-05 14:00:00 9.7 2 Nordeste 6 Este 0 -- -- 96
2021-02-05 13:00:00 9.7 0 Calma 6 Este 0 -- -- 96
2021-02-05 12:00:00 9.3 0 Calma 5 Sur 0 -- -- 98
2021-02-05 11:00:00 8.8 0 Calma 6 Este 0 -- -- 99
2021-02-05 10:00:00 8.2 3 Este 10 Sudeste 0 -- -- 99
2021-02-05 09:00:00 7.9 3 Sudeste 11 Noroeste 0 -- -- 99
2021-02-05 08:00:00 8.1 3 Noroeste 6 Noroeste 0 -- -- 99
2021-02-05 07:00:00 8 2 Oeste 9 Oeste 0 -- -- 99
2021-02-05 06:00:00 8.1 0 Calma 9 Este 0 -- -- 98
2021-02-05 05:00:00 8 3 Oeste 8 Noroeste 0 -- -- 98
2021-02-05 04:00:00 7.5 3 Oeste 5 Oeste 0 -- -- 97
2021-02-05 03:00:00 7.7 0 Calma 5 Noroeste 0 -- -- 97
2021-02-05 02:00:00 7.9 3 Sur 8 Sudeste 0 -- -- 95
2021-02-05 01:00:00 8.1 4 Sudeste 9 Sur 0 -- -- 95
2021-02-05 00:00:00 7.9 0 Calma 8 Oeste 0 -- -- 95
2021-02-04 23:00:00 7.9 4 Noroeste 12 Noroeste 0.2 -- -- 95
2021-02-04 22:00:00 7.9 4 Norte 21 Noroeste 0 -- -- 94
2021-02-04 21:00:00 8 7 Oeste 18 Noroeste 0 -- -- 94
2021-02-04 20:00:00 9.4 7 Oeste 18 Oeste 0 -- -- 90
2021-02-04 19:00:00 10.7 6 Noroeste 13 Oeste 0 -- -- 85
2021-02-04 18:00:00 11.6 4 Norte 14 Norte 0 -- -- 81
2021-02-04 17:00:00 12.4 4 Noroeste 13 Norte 0 -- -- 75
2021-02-04 16:00:00 13.5 2 Norte 6 Este 0 -- -- 73
2021-02-04 15:00:00 13.2 0 Calma 6 Este 0 -- -- 75
2021-02-04 14:00:00 12.5 5 Sudeste 13 Sudeste 0 -- -- 76
2021-02-04 13:00:00 12.4 4 Sur 10 Sur 0 -- -- 74
2021-02-04 12:00:00 11.7 4 Sudeste 13 Sudeste 0 -- -- 76
2021-02-04 11:00:00 11.7 3 Sur 10 Nordeste 0 -- -- 76
2021-02-04 10:00:00 11.4 0 Calma 13 Oeste 0 -- -- 77
2021-02-04 09:00:00 10.3 3 Sudoeste 8 Sudeste 0 -- -- 83
2021-02-04 08:00:00 11 4 Sudeste 14 Nordeste 0 -- -- 76
2021-02-04 07:00:00 11.5 5 Norte 19 Este 0 -- -- 73
2021-02-04 06:00:00 11.9 5 Nordeste 18 Nordeste 0 -- -- 67
2021-02-04 05:00:00 11.5 4 Nordeste 15 Este 0 -- -- 70
2021-02-04 04:00:00 11.1 6 Nordeste 17 Norte 0 -- -- 71
2021-02-04 03:00:00 10.6 5 Este 13 Este 0 -- -- 79
2021-02-04 02:00:00 10.8 6 Sudeste 15 Sudeste 0 -- -- 79
2021-02-04 01:00:00 10.2 5 Este 24 Sudeste 0 -- -- 84
2021-02-04 00:00:00 10.3 7 Sudeste 21 Sudeste 0 -- -- 88
2021-02-03 23:00:00 11.1 4 Sudeste 19 Este 0 -- -- 82
2021-02-03 22:00:00 11.7 6 Sudeste 22 Sudeste 0 -- -- 73
2021-02-03 21:00:00 11.7 7 Sudeste 20 Este 0 -- -- 72
2021-02-03 20:00:00 12.2 7 Sudeste 19 Sudeste 0 -- -- 72
2021-02-03 19:00:00 13 6 Sudeste 15 Sudeste 0 -- -- 62
2021-02-03 18:00:00 13.7 5 Sudeste 16 Norte 0 -- -- 63
2021-02-03 17:00:00 15 3 Nordeste 15 Sudeste 0 -- -- 51
2021-02-03 16:00:00 15.7 5 Norte 22 Oeste 0 -- -- 47
2021-02-03 15:00:00 15.5 5 Norte 19 Norte 0 -- -- 47
2021-02-03 14:00:00 15.6 6 Norte 28 Oeste 0 -- -- 53
2021-02-03 13:00:00 14.9 6 Oeste 33 Oeste 0 -- -- 53
2021-02-03 12:00:00 14.5 8 Noroeste 24 Nordeste 0 -- -- 57
2021-02-03 11:00:00 14.3 8 Noroeste 30 Oeste 0 -- -- 64
2021-02-03 10:00:00 13.4 10 Norte 31 Sudoeste 0 -- -- 66
2021-02-03 09:00:00 13.2 9 Norte 25 Norte 0 -- -- 67
2021-02-03 08:00:00 12.9 10 Norte 27 Noroeste 0 -- -- 67
2021-02-03 07:00:00 12.5 8 Norte 30 Norte 0 -- -- 69
2021-02-03 06:00:00 12.5 11 Nordeste 29 Nordeste 0 -- -- 69
2021-02-03 05:00:00 13 12 Nordeste 28 Nordeste 0 -- -- 65
2021-02-03 04:00:00 13 8 Este 29 Este 0 -- -- 61
2021-02-03 03:00:00 13.4 11 Nordeste 38 Sudeste 0 -- -- 57
2021-02-03 02:00:00 13.7 10 Este 35 Nordeste 0 -- -- 56
2021-02-03 01:00:00 13 8 Este 28 Este 0 -- -- 63
2021-02-03 00:00:00 13.4 7 Sudeste 35 Sudeste 0 -- -- 64
2021-02-02 23:00:00 13.7 10 Nordeste 32 Este 0 -- -- 66
2021-02-02 22:00:00 13.8 8 Este 24 Sudeste 0 -- -- 65
2021-02-02 21:00:00 13.5 5 Sudeste 29 Oeste 0 -- -- 64
2021-02-02 20:00:00 14.1 8 Sudoeste 31 Sur 0 -- -- 61
2021-02-02 19:00:00 13.9 8 Sudoeste 35 Oeste 0 -- -- 61
2021-02-02 18:00:00 12.4 7 Sudeste 20 Sudeste 0 -- -- 79
2021-02-02 17:00:00 12.6 6 Sudeste 17 Este 0 -- -- 76
2021-02-02 16:00:00 14.5 4 Noroeste 28 Noroeste 0 -- -- 63
2021-02-02 15:00:00 16 6 Sudoeste 24 Sudoeste 0 -- -- 58
2021-02-02 14:00:00 15.8 7 Este 18 Sur 0.2 -- -- 59
2021-02-02 13:00:00 16.3 5 Este 25 Noroeste 0 -- -- 59
2021-02-02 12:00:00 15.2 4 Sur 19 Noroeste 0 -- -- 61
2021-02-02 11:00:00 14.2 4 Nordeste 19 Sudeste 0 -- -- 66
2021-02-02 10:00:00 13.3 5 Oeste 26 Sudeste 0 -- -- 72
2021-02-02 09:00:00 12.8 6 Sudoeste 20 Sudoeste 0 -- -- 70
2021-02-02 08:00:00 11.6 4 Nordeste 18 Sur 0 -- -- 79
2021-02-02 07:00:00 9.7 3 Sur 8 Oeste 0 -- -- 88
2021-02-02 06:00:00 10.3 4 Sudoeste 10 Sur 0 -- -- 85
2021-02-02 05:00:00 10 4 Sur 15 Sur 0 -- -- 87
2021-02-02 04:00:00 9.7 5 Sur 13 Sudeste 0 -- -- 88
2021-02-02 03:00:00 9.5 4 Sur 11 Sudeste 0 -- -- 89
2021-02-02 02:00:00 9.6 3 Sur 13 Sudeste 0 -- -- 91
2021-02-02 01:00:00 10.4 4 Sur 10 Sudoeste 0 -- -- 89
2021-02-02 00:00:00 10.7 3 Sudoeste 10 Sudoeste 0 -- -- 92
2021-02-01 23:00:00 10.3 3 Sudoeste 12 Sudeste 0 -- -- 98
2021-02-01 22:00:00 10.4 8 Sudeste 12 Sudeste 0 -- -- 98
2021-02-01 21:00:00 10.5 4 Sudeste 11 Sudeste 0 -- -- 96
2021-02-01 20:00:00 10.4 2 Sur 6 Sur 0 -- -- 95
2021-02-01 19:00:00 11 2 Sudoeste 5 Sudoeste 0 -- -- 93
2021-02-01 18:00:00 12.4 2 Oeste 6 Oeste 0.2 -- -- 84
2021-02-01 17:00:00 13.1 3 Sudeste 9 Este 0 -- -- 80
2021-02-01 16:00:00 12.9 3 Este 11 Noroeste 0 -- -- 81
2021-02-01 15:00:00 11.9 6 Noroeste 29 Noroeste 0 -- -- 84
2021-02-01 14:00:00 11.7 8 Noroeste 33 Noroeste 0 -- -- 82
2021-02-01 13:00:00 11.9 13 Noroeste 31 Noroeste 0 -- -- 79
2021-02-01 12:00:00 11.9 9 Norte 32 Norte 0 -- -- 76
2021-02-01 11:00:00 10.8 7 Norte 33 Noroeste 0 -- -- 79
2021-02-01 10:00:00 10.1 13 Noroeste 44 Noroeste 0 -- -- 82
2021-02-01 09:00:00 10.1 13 Noroeste 47 Noroeste 0 -- -- 79
2021-02-01 08:00:00 10.2 15 Noroeste 40 Oeste 0 -- -- 74
2021-02-01 07:00:00 10.3 11 Norte 35 Noroeste 0 -- -- 74
2021-02-01 06:00:00 10.3 9 Norte 30 Noroeste 0.2 -- -- 79
2021-02-01 05:00:00 10.1 11 Norte 36 Noroeste 0 -- -- 80
2021-02-01 04:00:00 10.1 9 Norte 39 Oeste 0 -- -- 82
2021-02-01 03:00:00 10 10 Noroeste 24 Nordeste 0 -- -- 84
2021-02-01 02:00:00 9.7 10 Norte 34 Oeste 0.2 -- -- 86
2021-02-01 01:00:00 10.3 13 Noroeste 37 Noroeste 0 -- -- 88
2021-02-01 00:00:00 11.1 8 Norte 25 Norte 0 -- -- 78
2021-01-31 23:00:00 10.7 4 Noroeste 22 Noroeste 0 -- -- 89
2021-01-31 22:00:00 10.8 6 Noroeste 21 Noroeste 0 -- -- 90
2021-01-31 21:00:00 10.3 5 Noroeste 10 Oeste 0 -- -- 92
2021-01-31 20:00:00 9.7 4 Oeste 10 Oeste 0 -- -- 95
2021-01-31 19:00:00 9.5 3 Sur 10 Oeste 0.2 -- -- 94
2021-01-31 18:00:00 9.7 4 Sudoeste 10 Este 0 -- -- 93
2021-01-31 17:00:00 10.6 4 Sudoeste 7 Sudoeste 0.2 -- -- 92
2021-01-31 16:00:00 12.3 2 Sudoeste 6 Sudoeste 0 -- -- 90
2021-01-31 15:00:00 9.5 3 Sudeste 10 Sudeste 0 -- -- 96
2021-01-31 14:00:00 8.5 5 Sudeste 11 Sudeste 0.6 -- -- 96
2021-01-31 13:00:00 8.4 4 Sudeste 9 Sudeste 1 -- -- 96
2021-01-31 12:00:00 7.8 4 Sudeste 10 Sur 1 -- -- 95
2021-01-31 11:00:00 7.9 3 Norte 9 Noroeste 0 -- -- 93
2021-01-31 10:00:00 7.4 0 Calma 6 Sudeste 0.2 -- -- 92
2021-01-31 09:00:00 8.3 3 Noroeste 13 Noroeste 0 -- -- 78
2021-01-31 08:00:00 8.2 3 Norte 20 Oeste 0 -- -- 78
2021-01-31 07:00:00 7.7 5 Norte 32 Oeste 0.2 -- -- 85
2021-01-31 06:00:00 7.5 11 Noroeste 32 Norte 0.2 -- -- 90
2021-01-31 05:00:00 7.8 17 Noroeste 46 Oeste 0.2 -- -- 87
2021-01-31 04:00:00 8 14 Norte 42 Noroeste 0.2 -- -- 84
2021-01-31 03:00:00 8.4 15 Norte 39 Oeste 0 -- -- 82
2021-01-31 02:00:00 8.3 12 Norte 41 Noroeste 0 -- -- 81
2021-01-31 01:00:00 8.3 9 Norte 34 Oeste 0.2 -- -- 80
2021-01-31 00:00:00 8.1 9 Norte 36 Noroeste 0 -- -- 76
2021-01-30 23:00:00 8.1 7 Norte 26 Noroeste 0 -- -- 77
2021-01-30 22:00:00 7.2 7 Norte 23 Norte 0.2 -- -- 81
2021-01-30 21:00:00 7.1 3 Norte 12 Noroeste 0.2 -- -- 85
2021-01-30 20:00:00 7 4 Norte 14 Norte 0 -- -- 84
2021-01-30 19:00:00 6.8 0 Calma 12 Noroeste 0 -- -- 92
2021-01-30 18:00:00 7.1 3 Sur 9 Sudoeste 0 -- -- 92
2021-01-30 17:00:00 7.8 3 Sudoeste 8 Sur 0 -- -- 86
2021-01-30 16:00:00 7.2 3 Norte 13 Norte 0.2 -- -- 93
2021-01-30 15:00:00 7.3 6 Noroeste 23 Noroeste 1.2 -- -- 92
2021-01-30 14:00:00 8 9 Noroeste 32 Nordeste 2 -- -- 90
2021-01-30 13:00:00 10.9 10 Nordeste 21 Norte 0 -- -- 74
2021-01-30 12:00:00 11.9 4 Norte 14 Nordeste 0 -- -- 70
2021-01-30 11:00:00 11.2 5 Noroeste 15 Oeste 0 -- -- 66
2021-01-30 10:00:00 10.9 4 Nordeste 10 Sudoeste 0 -- -- 71
2021-01-30 09:00:00 10.1 2 Oeste 8 Oeste 0 -- -- 89
2021-01-30 08:00:00 10.8 8 Norte 18 Nordeste 0 -- -- 85
2021-01-30 07:00:00 11.7 4 Sudoeste 21 Oeste 0 -- -- 67
2021-01-30 06:00:00 10.7 4 Sudeste 21 Sudeste 0.4 -- -- 91
2021-01-30 05:00:00 11.5 3 Norte 15 Noroeste 0.8 -- -- 90
2021-01-30 04:00:00 13.4 2 Sur 20 Noroeste 0 -- -- 71
2021-01-30 03:00:00 13.9 8 Norte 33 Sudeste 0 -- -- 64
2021-01-30 02:00:00 14.2 7 Sur 26 Oeste 0 -- -- 66
2021-01-30 01:00:00 14.7 12 Sudoeste 41 Sudeste 0 -- -- 67
2021-01-30 00:00:00 14.5 8 Sudeste 32 Sur 0 -- -- 68